Jaguariuna, Brazil
Current Conditions -  °F | °C
As of 5:00 PM on Thursday 23 Oct 2014 (Local Time) from SBKP Reporting Station
Scattered Clouds Scattered Clouds  
Wind Chill: 88°   Ceiling: Unl
Heat Index: 88°   Visibility: 6mi
Dew Point: 54°   Wind: 8mph
Humidity: 31%   Direction: 250°WSW
Pressure: 29.97"   Gusts: NA
Location:  22.71°S, 46.99°W
Report Text: SBKP 231900Z 25007KT 9999 SCT049 31/12 Q1015
Loading
Personal Weather Stations






























Interactive Weather Map
Tropical Storm Tracking
New forecast layout! Learn more

10-Day Weather Forecast

Advertisements
Track Severe Weather on mobile